Bradley, IL (60915)

9:31 AM CDT on September 02, 2015 (GMT -0500)
East Bradley | | Change Station
CLOSE
Current Station
Personal Weather Station
Location: Bradley, IL
Elevation: 650 ft
Nearby Weather Stations

Elev 650 ft 41.14 °N, 87.85 °W | Updated 4 minutes ago

Clear
Clear
79.5 °F
Feels Like 83 °F
N
4.2
Wind Variable Wind from SSW

Today
High -- | Low -- °F
--% Chance of Precip.
Yesterday
High -- | Low -- °F
Precip. -- in
6:18 AM 7:22 PM
Waning Gibbous, 80% visible
Pressure 30.09 in
Visibility 10.0 miles
Clouds Clear
Heat Index 83 °F
Dew Point 72 °F
Humidity 79%
Rainfall 0.00 in
Snow Depth Not available.
UV 3 out of 12
Pollen 11.00 out of 12
Air Quality Not available.
Flu Activity Not available.
METAR KIKK 021415Z AUTO 00000KT 10SM CLR 27/23 A3009 RMK AO2 T02650231
Pressure 30.09 in
Visibility 10.0 miles
Clouds Clear
Heat Index 83 °F
Dew Point 72 °F
Humidity 79%
Rainfall 0.00 in
Snow Depth Not available.
UV 3 out of 12
Pollen 11.00 out of 12
Air Quality Not available.
Flu Activity Not available.
METAR KIKK 021415Z AUTO 00000KT 10SM CLR 27/23 A3009 RMK AO2 T02650231

10-Day Weather Forecast

×

Almanac

Astronomy

Sep. 02, 2015 Rise Set
Actual Time
Civil Twilight
Nautical Twilight
Astronomical Twilight
Moon
Length of Visible Light
Length of Day
Tomorrow will be .
, % of the Moon is Illuminated

Today's Extremes

State Highs State Lows

Community

WunderPhotos

Upload Photos

1,851,763 photos uploaded!

WunderBlogs® & News

Nearby

Air Quality

  Air Quality AQ Index Pollutant
Not available.

Snow Depth

Station Depth Elevation

Earthquake Activity

City Distance Mag. Time & Date
Minimum magnitude displayed is 2.5.

Coastal Water Temperatures

Place Temperature

Stations

Nearby Weather Stations

Station Location Temp. Windchill Dew Point Humidity Wind Precip. Elev Updated Type